sensor_id;sensor_type;location;lat;lon;timestamp;P1;durP1;ratioP1;P2;durP2;ratioP2
9388;SDS011;4734;52.778;6.798;2023-01-29T00:01:30;14.47;;;11.90;;
9388;SDS011;4734;52.778;6.798;2023-01-29T00:04:16;15.37;;;11.93;;
9388;SDS011;4734;52.778;6.798;2023-01-29T00:07:02;12.70;;;11.40;;
9388;SDS011;4734;52.778;6.798;2023-01-29T00:09:47;12.70;;;11.43;;
9388;SDS011;4734;52.778;6.798;2023-01-29T00:12:33;12.60;;;11.20;;
9388;SDS011;4734;52.778;6.798;2023-01-29T00:15:19;15.30;;;12.50;;
9388;SDS011;4734;52.778;6.798;2023-01-29T00:18:06;16.37;;;12.47;;
9388;SDS011;4734;52.778;6.798;2023-01-29T00:20:52;14.20;;;12.17;;
9388;SDS011;4734;52.778;6.798;2023-01-29T00:23:38;13.10;;;11.70;;
9388;SDS011;4734;52.778;6.798;2023-01-29T00:26:24;12.60;;;11.30;;
9388;SDS011;4734;52.778;6.798;2023-01-29T00:29:10;13.80;;;11.13;;
9388;SDS011;4734;52.778;6.798;2023-01-29T00:31:55;13.80;;;11.90;;
9388;SDS011;4734;52.778;6.798;2023-01-29T00:34:43;13.87;;;11.43;;
9388;SDS011;4734;52.778;6.798;2023-01-29T00:37:29;12.63;;;10.90;;
9388;SDS011;4734;52.778;6.798;2023-01-29T00:40:14;13.37;;;10.53;;
9388;SDS011;4734;52.778;6.798;2023-01-29T00:43:00;12.67;;;11.30;;
9388;SDS011;4734;52.778;6.798;2023-01-29T00:46:06;12.87;;;11.57;;
9388;SDS011;4734;52.778;6.798;2023-01-29T00:48:51;12.10;;;10.80;;
9388;SDS011;4734;52.778;6.798;2023-01-29T00:51:38;13.03;;;11.63;;
9388;SDS011;4734;52.778;6.798;2023-01-29T00:54:24;12.83;;;10.90;;
9388;SDS011;4734;52.778;6.798;2023-01-29T00:57:10;12.57;;;11.27;;
9388;SDS011;4734;52.778;6.798;2023-01-29T00:59:56;11.60;;;10.27;;
9388;SDS011;4734;52.778;6.798;2023-01-29T01:02:42;13.57;;;11.10;;
9388;SDS011;4734;52.778;6.798;2023-01-29T01:05:46;12.33;;;10.70;;
9388;SDS011;4734;52.778;6.798;2023-01-29T01:08:33;11.47;;;10.27;;
9388;SDS011;4734;52.778;6.798;2023-01-29T01:11:36;13.87;;;10.93;;
9388;SDS011;4734;52.778;6.798;2023-01-29T01:14:22;12.63;;;10.90;;
9388;SDS011;4734;52.778;6.798;2023-01-29T01:17:08;12.57;;;10.37;;
9388;SDS011;4734;52.778;6.798;2023-01-29T01:19:54;12.60;;;10.83;;
9388;SDS011;4734;52.778;6.798;2023-01-29T01:22:40;13.33;;;10.60;;
9388;SDS011;4734;52.778;6.798;2023-01-29T01:25:27;12.10;;;10.70;;
9388;SDS011;4734;52.778;6.798;2023-01-29T01:28:13;13.63;;;11.07;;
9388;SDS011;4734;52.778;6.798;2023-01-29T01:31:06;12.47;;;10.70;;
9388;SDS011;4734;52.778;6.798;2023-01-29T01:33:52;12.13;;;9.97;;
9388;SDS011;4734;52.778;6.798;2023-01-29T01:36:39;13.10;;;10.80;;
9388;SDS011;4734;52.778;6.798;2023-01-29T01:39:24;13.63;;;10.90;;
9388;SDS011;4734;52.778;6.798;2023-01-29T01:42:12;11.67;;;10.13;;
9388;SDS011;4734;52.778;6.798;2023-01-29T01:44:58;11.20;;;9.53;;
9388;SDS011;4734;52.778;6.798;2023-01-29T01:47:47;11.97;;;10.43;;
9388;SDS011;4734;52.778;6.798;2023-01-29T01:50:35;12.30;;;11.00;;
9388;SDS011;4734;52.778;6.798;2023-01-29T01:53:22;12.63;;;10.77;;
9388;SDS011;4734;52.778;6.798;2023-01-29T01:56:12;13.43;;;11.20;;
9388;SDS011;4734;52.778;6.798;2023-01-29T01:59:00;13.03;;;10.20;;
9388;SDS011;4734;52.778;6.798;2023-01-29T02:01:46;12.23;;;10.47;;
9388;SDS011;4734;52.778;6.798;2023-01-29T02:04:33;11.67;;;9.97;;
9388;SDS011;4734;52.778;6.798;2023-01-29T02:07:39;13.07;;;10.77;;
9388;SDS011;4734;52.778;6.798;2023-01-29T02:10:44;13.57;;;11.23;;
9388;SDS011;4734;52.778;6.798;2023-01-29T02:13:29;11.60;;;10.27;;
9388;SDS011;4734;52.778;6.798;2023-01-29T02:16:17;10.90;;;9.80;;
9388;SDS011;4734;52.778;6.798;2023-01-29T02:19:03;12.93;;;10.47;;
9388;SDS011;4734;52.778;6.798;2023-01-29T02:22:05;11.90;;;10.13;;
9388;SDS011;4734;52.778;6.798;2023-01-29T02:28:16;12.67;;;10.20;;
9388;SDS011;4734;52.778;6.798;2023-01-29T02:31:07;13.97;;;10.60;;
9388;SDS011;4734;52.778;6.798;2023-01-29T02:33:55;13.70;;;10.00;;
9388;SDS011;4734;52.778;6.798;2023-01-29T02:36:46;12.23;;;10.43;;
9388;SDS011;4734;52.778;6.798;2023-01-29T02:39:36;14.37;;;10.80;;
9388;SDS011;4734;52.778;6.798;2023-01-29T02:42:25;13.20;;;10.10;;
9388;SDS011;4734;52.778;6.798;2023-01-29T02:45:14;13.63;;;10.80;;
9388;SDS011;4734;52.778;6.798;2023-01-29T02:48:03;11.87;;;10.13;;
9388;SDS011;4734;52.778;6.798;2023-01-29T02:50:50;12.93;;;10.83;;
9388;SDS011;4734;52.778;6.798;2023-01-29T02:53:40;14.53;;;10.93;;
9388;SDS011;4734;52.778;6.798;2023-01-29T02:56:30;14.17;;;10.83;;
9388;SDS011;4734;52.778;6.798;2023-01-29T02:59:20;12.10;;;10.70;;
9388;SDS011;4734;52.778;6.798;2023-01-29T03:02:09;12.10;;;10.80;;
9388;SDS011;4734;52.778;6.798;2023-01-29T03:04:57;11.57;;;10.37;;
9388;SDS011;4734;52.778;6.798;2023-01-29T03:07:45;12.30;;;11.10;;
9388;SDS011;4734;52.778;6.798;2023-01-29T03:10:36;13.67;;;11.10;;
9388;SDS011;4734;52.778;6.798;2023-01-29T03:13:25;13.30;;;10.50;;
9388;SDS011;4734;52.778;6.798;2023-01-29T03:16:13;13.47;;;11.30;;
9388;SDS011;4734;52.778;6.798;2023-01-29T03:19:03;13.80;;;10.90;;
9388;SDS011;4734;52.778;6.798;2023-01-29T03:21:51;13.20;;;11.27;;
9388;SDS011;4734;52.778;6.798;2023-01-29T03:24:43;12.73;;;10.67;;
9388;SDS011;4734;52.778;6.798;2023-01-29T03:27:48;12.87;;;11.20;;
9388;SDS011;4734;52.778;6.798;2023-01-29T03:30:52;14.83;;;11.50;;
9388;SDS011;4734;52.778;6.798;2023-01-29T03:33:58;14.13;;;12.10;;
9388;SDS011;4734;52.778;6.798;2023-01-29T03:36:49;15.63;;;12.77;;
9388;SDS011;4734;52.778;6.798;2023-01-29T03:39:38;13.80;;;12.13;;
9388;SDS011;4734;52.778;6.798;2023-01-29T03:42:26;17.33;;;11.73;;
9388;SDS011;4734;52.778;6.798;2023-01-29T03:45:13;15.07;;;13.47;;
9388;SDS011;4734;52.778;6.798;2023-01-29T03:48:02;15.00;;;12.60;;
9388;SDS011;4734;52.778;6.798;2023-01-29T03:50:51;13.73;;;12.27;;
9388;SDS011;4734;52.778;6.798;2023-01-29T03:53:41;13.27;;;11.43;;
9388;SDS011;4734;52.778;6.798;2023-01-29T03:56:32;14.90;;;12.80;;
9388;SDS011;4734;52.778;6.798;2023-01-29T03:59:22;14.20;;;12.60;;
9388;SDS011;4734;52.778;6.798;2023-01-29T04:02:12;15.27;;;12.60;;
9388;SDS011;4734;52.778;6.798;2023-01-29T04:04:58;14.77;;;12.80;;
9388;SDS011;4734;52.778;6.798;2023-01-29T04:07:47;13.13;;;11.70;;
9388;SDS011;4734;52.778;6.798;2023-01-29T04:10:37;16.57;;;12.80;;
9388;SDS011;4734;52.778;6.798;2023-01-29T04:13:25;13.90;;;11.70;;
9388;SDS011;4734;52.778;6.798;2023-01-29T04:16:13;14.30;;;12.80;;
9388;SDS011;4734;52.778;6.798;2023-01-29T04:19:00;15.03;;;12.87;;
9388;SDS011;4734;52.778;6.798;2023-01-29T04:21:46;15.70;;;11.80;;
9388;SDS011;4734;52.778;6.798;2023-01-29T04:24:33;15.73;;;13.10;;
9388;SDS011;4734;52.778;6.798;2023-01-29T04:27:24;14.57;;;12.93;;
9388;SDS011;4734;52.778;6.798;2023-01-29T04:30:18;16.90;;;13.07;;
9388;SDS011;4734;52.778;6.798;2023-01-29T04:33:10;14.30;;;12.73;;
9388;SDS011;4734;52.778;6.798;2023-01-29T04:36:06;14.43;;;12.87;;
9388;SDS011;4734;52.778;6.798;2023-01-29T04:38:57;15.50;;;12.73;;
9388;SDS011;4734;52.778;6.798;2023-01-29T04:41:48;14.50;;;12.87;;
9388;SDS011;4734;52.778;6.798;2023-01-29T04:44:37;14.57;;;12.70;;
9388;SDS011;4734;52.778;6.798;2023-01-29T04:47:26;15.43;;;13.30;;
9388;SDS011;4734;52.778;6.798;2023-01-29T04:50:15;14.67;;;12.53;;
9388;SDS011;4734;52.778;6.798;2023-01-29T04:53:03;14.97;;;13.37;;
9388;SDS011;4734;52.778;6.798;2023-01-29T04:55:52;15.80;;;13.50;;
9388;SDS011;4734;52.778;6.798;2023-01-29T04:58:40;14.80;;;12.50;;
9388;SDS011;4734;52.778;6.798;2023-01-29T05:01:29;15.30;;;13.07;;
9388;SDS011;4734;52.778;6.798;2023-01-29T05:04:17;15.27;;;13.30;;
9388;SDS011;4734;52.778;6.798;2023-01-29T05:07:04;15.30;;;13.80;;
9388;SDS011;4734;52.778;6.798;2023-01-29T05:09:51;14.93;;;13.40;;
9388;SDS011;4734;52.778;6.798;2023-01-29T05:12:37;14.17;;;12.60;;
9388;SDS011;4734;52.778;6.798;2023-01-29T05:15:24;14.07;;;12.57;;
9388;SDS011;4734;52.778;6.798;2023-01-29T05:18:12;16.17;;;12.87;;
9388;SDS011;4734;52.778;6.798;2023-01-29T05:20:59;14.53;;;13.03;;
9388;SDS011;4734;52.778;6.798;2023-01-29T05:23:47;14.50;;;13.00;;
9388;SDS011;4734;52.778;6.798;2023-01-29T05:26:51;15.30;;;13.50;;
9388;SDS011;4734;52.778;6.798;2023-01-29T05:29:55;14.80;;;12.97;;
9388;SDS011;4734;52.778;6.798;2023-01-29T05:32:40;15.57;;;14.07;;
9388;SDS011;4734;52.778;6.798;2023-01-29T05:35:28;16.77;;;14.67;;
9388;SDS011;4734;52.778;6.798;2023-01-29T05:38:14;16.63;;;14.43;;
9388;SDS011;4734;52.778;6.798;2023-01-29T05:41:00;16.50;;;14.37;;
9388;SDS011;4734;52.778;6.798;2023-01-29T05:43:46;18.47;;;14.73;;
9388;SDS011;4734;52.778;6.798;2023-01-29T05:46:31;15.43;;;13.80;;
9388;SDS011;4734;52.778;6.798;2023-01-29T05:49:17;16.10;;;14.50;;
9388;SDS011;4734;52.778;6.798;2023-01-29T05:52:06;15.50;;;13.90;;
9388;SDS011;4734;52.778;6.798;2023-01-29T05:54:52;15.70;;;14.10;;
9388;SDS011;4734;52.778;6.798;2023-01-29T05:57:38;16.90;;;15.17;;
9388;SDS011;4734;52.778;6.798;2023-01-29T06:00:24;16.33;;;14.60;;
9388;SDS011;4734;52.778;6.798;2023-01-29T06:03:10;16.77;;;13.87;;
9388;SDS011;4734;52.778;6.798;2023-01-29T06:05:56;16.50;;;14.43;;
9388;SDS011;4734;52.778;6.798;2023-01-29T06:08:43;14.90;;;13.30;;
9388;SDS011;4734;52.778;6.798;2023-01-29T06:11:29;15.70;;;14.07;;
9388;SDS011;4734;52.778;6.798;2023-01-29T06:14:14;18.20;;;14.50;;
9388;SDS011;4734;52.778;6.798;2023-01-29T06:17:00;15.23;;;13.63;;
9388;SDS011;4734;52.778;6.798;2023-01-29T06:19:46;16.23;;;14.50;;
9388;SDS011;4734;52.778;6.798;2023-01-29T06:22:31;15.23;;;13.63;;
9388;SDS011;4734;52.778;6.798;2023-01-29T06:25:18;17.03;;;14.63;;
9388;SDS011;4734;52.778;6.798;2023-01-29T06:28:04;15.50;;;13.80;;
9388;SDS011;4734;52.778;6.798;2023-01-29T06:30:50;16.63;;;14.83;;
9388;SDS011;4734;52.778;6.798;2023-01-29T06:33:36;18.63;;;14.93;;
9388;SDS011;4734;52.778;6.798;2023-01-29T06:36:21;16.67;;;14.40;;
9388;SDS011;4734;52.778;6.798;2023-01-29T06:39:07;17.00;;;13.77;;
9388;SDS011;4734;52.778;6.798;2023-01-29T06:41:54;15.97;;;14.27;;
9388;SDS011;4734;52.778;6.798;2023-01-29T06:44:40;17.43;;;15.50;;
9388;SDS011;4734;52.778;6.798;2023-01-29T06:47:26;17.00;;;15.23;;
9388;SDS011;4734;52.778;6.798;2023-01-29T06:50:12;15.83;;;13.73;;
9388;SDS011;4734;52.778;6.798;2023-01-29T06:52:58;15.83;;;14.07;;
9388;SDS011;4734;52.778;6.798;2023-01-29T06:55:47;17.33;;;15.53;;
9388;SDS011;4734;52.778;6.798;2023-01-29T06:58:36;18.40;;;14.37;;
9388;SDS011;4734;52.778;6.798;2023-01-29T07:01:22;17.50;;;15.60;;
9388;SDS011;4734;52.778;6.798;2023-01-29T07:04:08;17.10;;;15.40;;
9388;SDS011;4734;52.778;6.798;2023-01-29T07:06:54;17.37;;;15.53;;
9388;SDS011;4734;52.778;6.798;2023-01-29T07:09:40;18.30;;;15.03;;
9388;SDS011;4734;52.778;6.798;2023-01-29T07:12:26;17.37;;;14.77;;
9388;SDS011;4734;52.778;6.798;2023-01-29T07:15:13;20.10;;;15.57;;
9388;SDS011;4734;52.778;6.798;2023-01-29T07:18:02;17.10;;;14.90;;
9388;SDS011;4734;52.778;6.798;2023-01-29T07:20:54;18.40;;;14.57;;
9388;SDS011;4734;52.778;6.798;2023-01-29T07:23:40;18.97;;;15.43;;
9388;SDS011;4734;52.778;6.798;2023-01-29T07:26:26;17.53;;;15.73;;
9388;SDS011;4734;52.778;6.798;2023-01-29T07:29:11;18.80;;;15.30;;
9388;SDS011;4734;52.778;6.798;2023-01-29T07:31:58;18.27;;;15.27;;
9388;SDS011;4734;52.778;6.798;2023-01-29T07:34:44;17.00;;;15.30;;
9388;SDS011;4734;52.778;6.798;2023-01-29T07:37:30;16.37;;;14.77;;
9388;SDS011;4734;52.778;6.798;2023-01-29T07:40:16;17.83;;;15.93;;
9388;SDS011;4734;52.778;6.798;2023-01-29T07:43:03;17.30;;;15.50;;
9388;SDS011;4734;52.778;6.798;2023-01-29T07:45:49;15.93;;;14.23;;
9388;SDS011;4734;52.778;6.798;2023-01-29T07:48:37;18.57;;;15.90;;
9388;SDS011;4734;52.778;6.798;2023-01-29T07:51:22;18.00;;;15.87;;
9388;SDS011;4734;52.778;6.798;2023-01-29T07:54:08;16.87;;;14.30;;
9388;SDS011;4734;52.778;6.798;2023-01-29T07:56:54;17.13;;;15.27;;
9388;SDS011;4734;52.778;6.798;2023-01-29T07:59:39;18.83;;;16.50;;
9388;SDS011;4734;52.778;6.798;2023-01-29T08:02:25;17.53;;;14.40;;
9388;SDS011;4734;52.778;6.798;2023-01-29T08:05:12;20.90;;;16.00;;
9388;SDS011;4734;52.778;6.798;2023-01-29T08:07:59;17.80;;;15.80;;
9388;SDS011;4734;52.778;6.798;2023-01-29T08:10:44;18.07;;;16.23;;
9388;SDS011;4734;52.778;6.798;2023-01-29T08:13:30;17.13;;;15.10;;
9388;SDS011;4734;52.778;6.798;2023-01-29T08:16:16;16.07;;;14.37;;
9388;SDS011;4734;52.778;6.798;2023-01-29T08:19:02;18.50;;;15.97;;
9388;SDS011;4734;52.778;6.798;2023-01-29T08:21:49;18.43;;;15.53;;
9388;SDS011;4734;52.778;6.798;2023-01-29T08:24:34;19.53;;;16.10;;
9388;SDS011;4734;52.778;6.798;2023-01-29T08:27:20;17.87;;;15.70;;
9388;SDS011;4734;52.778;6.798;2023-01-29T08:30:06;18.47;;;15.70;;
9388;SDS011;4734;52.778;6.798;2023-01-29T08:32:52;16.60;;;14.83;;
9388;SDS011;4734;52.778;6.798;2023-01-29T08:35:38;18.57;;;16.03;;
9388;SDS011;4734;52.778;6.798;2023-01-29T08:38:25;19.63;;;14.87;;
9388;SDS011;4734;52.778;6.798;2023-01-29T08:41:11;18.00;;;16.13;;
9388;SDS011;4734;52.778;6.798;2023-01-29T08:43:57;16.73;;;15.03;;
9388;SDS011;4734;52.778;6.798;2023-01-29T08:46:44;17.97;;;16.07;;
9388;SDS011;4734;52.778;6.798;2023-01-29T08:49:30;18.10;;;15.50;;
9388;SDS011;4734;52.778;6.798;2023-01-29T08:52:16;18.47;;;15.63;;
9388;SDS011;4734;52.778;6.798;2023-01-29T08:55:03;17.90;;;15.93;;
9388;SDS011;4734;52.778;6.798;2023-01-29T08:57:49;17.90;;;15.07;;
9388;SDS011;4734;52.778;6.798;2023-01-29T09:00:35;19.57;;;16.67;;
9388;SDS011;4734;52.778;6.798;2023-01-29T09:03:21;17.40;;;14.93;;
9388;SDS011;4734;52.778;6.798;2023-01-29T09:06:07;17.47;;;14.83;;
9388;SDS011;4734;52.778;6.798;2023-01-29T09:08:53;18.63;;;16.73;;
9388;SDS011;4734;52.778;6.798;2023-01-29T09:11:40;18.50;;;16.43;;
9388;SDS011;4734;52.778;6.798;2023-01-29T09:14:27;18.07;;;16.20;;
9388;SDS011;4734;52.778;6.798;2023-01-29T09:17:12;17.20;;;15.30;;
9388;SDS011;4734;52.778;6.798;2023-01-29T09:19:58;19.00;;;17.00;;
9388;SDS011;4734;52.778;6.798;2023-01-29T09:22:44;18.90;;;16.17;;
9388;SDS011;4734;52.778;6.798;2023-01-29T09:25:30;17.03;;;15.30;;
9388;SDS011;4734;52.778;6.798;2023-01-29T09:28:17;19.13;;;16.47;;
9388;SDS011;4734;52.778;6.798;2023-01-29T09:31:03;17.27;;;15.33;;
9388;SDS011;4734;52.778;6.798;2023-01-29T09:33:49;17.93;;;16.07;;
9388;SDS011;4734;52.778;6.798;2023-01-29T09:36:35;18.47;;;15.90;;
9388;SDS011;4734;52.778;6.798;2023-01-29T09:39:20;19.17;;;17.03;;
9388;SDS011;4734;52.778;6.798;2023-01-29T09:42:07;18.53;;;16.53;;
9388;SDS011;4734;52.778;6.798;2023-01-29T09:44:57;17.80;;;15.93;;
9388;SDS011;4734;52.778;6.798;2023-01-29T09:47:45;18.87;;;16.87;;
9388;SDS011;4734;52.778;6.798;2023-01-29T09:50:31;18.30;;;16.50;;
9388;SDS011;4734;52.778;6.798;2023-01-29T09:53:20;19.73;;;16.40;;
9388;SDS011;4734;52.778;6.798;2023-01-29T09:56:10;18.43;;;16.53;;
9388;SDS011;4734;52.778;6.798;2023-01-29T09:58:57;18.50;;;16.60;;
9388;SDS011;4734;52.778;6.798;2023-01-29T10:01:47;18.07;;;16.20;;
9388;SDS011;4734;52.778;6.798;2023-01-29T10:04:39;17.63;;;15.73;;
9388;SDS011;4734;52.778;6.798;2023-01-29T10:10:31;18.50;;;16.63;;
9388;SDS011;4734;52.778;6.798;2023-01-29T10:13:26;19.87;;;17.87;;
9388;SDS011;4734;52.778;6.798;2023-01-29T10:16:20;19.10;;;17.07;;
9388;SDS011;4734;52.778;6.798;2023-01-29T10:19:23;17.73;;;15.83;;
9388;SDS011;4734;52.778;6.798;2023-01-29T10:22:20;17.57;;;15.00;;
9388;SDS011;4734;52.778;6.798;2023-01-29T10:25:13;18.17;;;16.27;;
9388;SDS011;4734;52.778;6.798;2023-01-29T10:28:00;16.87;;;14.90;;
9388;SDS011;4734;52.778;6.798;2023-01-29T10:30:47;19.17;;;16.70;;
9388;SDS011;4734;52.778;6.798;2023-01-29T10:33:34;19.97;;;16.17;;
9388;SDS011;4734;52.778;6.798;2023-01-29T10:36:25;19.23;;;16.70;;
9388;SDS011;4734;52.778;6.798;2023-01-29T10:39:14;17.50;;;15.70;;
9388;SDS011;4734;52.778;6.798;2023-01-29T10:42:08;18.03;;;16.13;;
9388;SDS011;4734;52.778;6.798;2023-01-29T10:45:07;20.03;;;14.93;;
9388;SDS011;4734;52.778;6.798;2023-01-29T10:51:03;19.77;;;16.73;;
9388;SDS011;4734;52.778;6.798;2023-01-29T10:54:02;18.77;;;16.83;;
9388;SDS011;4734;52.778;6.798;2023-01-29T10:56:52;19.10;;;17.17;;
9388;SDS011;4734;52.778;6.798;2023-01-29T10:59:49;17.33;;;15.27;;
9388;SDS011;4734;52.778;6.798;2023-01-29T11:02:41;18.87;;;16.87;;
9388;SDS011;4734;52.778;6.798;2023-01-29T11:05:28;19.10;;;17.20;;
9388;SDS011;4734;52.778;6.798;2023-01-29T11:08:17;19.37;;;17.23;;
9388;SDS011;4734;52.778;6.798;2023-01-29T11:11:07;19.10;;;17.00;;
9388;SDS011;4734;52.778;6.798;2023-01-29T11:13:54;19.03;;;17.10;;
9388;SDS011;4734;52.778;6.798;2023-01-29T11:16:42;18.40;;;16.50;;
9388;SDS011;4734;52.778;6.798;2023-01-29T11:19:35;21.30;;;16.80;;
9388;SDS011;4734;52.778;6.798;2023-01-29T11:22:22;19.30;;;15.30;;
9388;SDS011;4734;52.778;6.798;2023-01-29T11:25:09;19.47;;;17.20;;
9388;SDS011;4734;52.778;6.798;2023-01-29T11:28:01;18.00;;;15.70;;
9388;SDS011;4734;52.778;6.798;2023-01-29T11:30:47;19.63;;;17.00;;
9388;SDS011;4734;52.778;6.798;2023-01-29T11:33:35;20.07;;;15.90;;
9388;SDS011;4734;52.778;6.798;2023-01-29T11:36:24;21.13;;;17.17;;
9388;SDS011;4734;52.778;6.798;2023-01-29T11:39:16;18.73;;;16.73;;
9388;SDS011;4734;52.778;6.798;2023-01-29T11:42:03;19.27;;;15.23;;
9388;SDS011;4734;52.778;6.798;2023-01-29T11:44:55;15.77;;;13.03;;
9388;SDS011;4734;52.778;6.798;2023-01-29T11:47:41;19.27;;;17.33;;
9388;SDS011;4734;52.778;6.798;2023-01-29T11:50:28;19.20;;;16.60;;
9388;SDS011;4734;52.778;6.798;2023-01-29T11:53:21;19.57;;;16.43;;
9388;SDS011;4734;52.778;6.798;2023-01-29T11:56:15;17.90;;;15.57;;
9388;SDS011;4734;52.778;6.798;2023-01-29T11:59:03;17.33;;;15.50;;
9388;SDS011;4734;52.778;6.798;2023-01-29T12:01:50;17.17;;;14.57;;
9388;SDS011;4734;52.778;6.798;2023-01-29T12:04:36;19.73;;;16.70;;
9388;SDS011;4734;52.778;6.798;2023-01-29T12:07:23;19.17;;;16.83;;
9388;SDS011;4734;52.778;6.798;2023-01-29T12:13:16;20.53;;;16.33;;
9388;SDS011;4734;52.778;6.798;2023-01-29T12:16:09;22.87;;;17.70;;
9388;SDS011;4734;52.778;6.798;2023-01-29T12:19:00;19.03;;;14.80;;
9388;SDS011;4734;52.778;6.798;2023-01-29T12:21:51;19.03;;;17.00;;
9388;SDS011;4734;52.778;6.798;2023-01-29T12:24:40;19.60;;;17.40;;
9388;SDS011;4734;52.778;6.798;2023-01-29T12:27:28;18.77;;;16.87;;
9388;SDS011;4734;52.778;6.798;2023-01-29T12:30:18;19.93;;;16.67;;
9388;SDS011;4734;52.778;6.798;2023-01-29T12:33:07;19.20;;;17.17;;
9388;SDS011;4734;52.778;6.798;2023-01-29T12:36:00;18.03;;;15.53;;
9388;SDS011;4734;52.778;6.798;2023-01-29T12:38:49;16.63;;;14.93;;
9388;SDS011;4734;52.778;6.798;2023-01-29T12:41:36;19.60;;;16.23;;
9388;SDS011;4734;52.778;6.798;2023-01-29T12:44:24;18.17;;;15.67;;
9388;SDS011;4734;52.778;6.798;2023-01-29T12:47:15;18.57;;;16.07;;
9388;SDS011;4734;52.778;6.798;2023-01-29T12:50:04;19.60;;;16.80;;
9388;SDS011;4734;52.778;6.798;2023-01-29T12:52:54;19.77;;;17.13;;
9388;SDS011;4734;52.778;6.798;2023-01-29T12:55:41;18.90;;;16.90;;
9388;SDS011;4734;52.778;6.798;2023-01-29T12:58:31;18.67;;;16.30;;
9388;SDS011;4734;52.778;6.798;2023-01-29T13:01:19;18.43;;;16.30;;
9388;SDS011;4734;52.778;6.798;2023-01-29T13:04:08;18.17;;;16.27;;
9388;SDS011;4734;52.778;6.798;2023-01-29T13:06:58;17.47;;;15.67;;
9388;SDS011;4734;52.778;6.798;2023-01-29T13:09:47;19.43;;;16.63;;
9388;SDS011;4734;52.778;6.798;2023-01-29T13:12:34;21.57;;;17.37;;
9388;SDS011;4734;52.778;6.798;2023-01-29T13:15:21;19.00;;;16.97;;
9388;SDS011;4734;52.778;6.798;2023-01-29T13:21:12;19.57;;;15.33;;
9388;SDS011;4734;52.778;6.798;2023-01-29T13:24:01;18.63;;;15.83;;
9388;SDS011;4734;52.778;6.798;2023-01-29T13:26:49;18.50;;;16.50;;
9388;SDS011;4734;52.778;6.798;2023-01-29T13:29:35;18.07;;;16.10;;
9388;SDS011;4734;52.778;6.798;2023-01-29T13:32:22;20.67;;;17.40;;
9388;SDS011;4734;52.778;6.798;2023-01-29T13:35:11;17.20;;;15.33;;
9388;SDS011;4734;52.778;6.798;2023-01-29T13:37:57;21.10;;;16.07;;
9388;SDS011;4734;52.778;6.798;2023-01-29T13:40:46;18.00;;;15.87;;
9388;SDS011;4734;52.778;6.798;2023-01-29T13:43:35;18.27;;;16.37;;
9388;SDS011;4734;52.778;6.798;2023-01-29T13:46:22;19.90;;;16.53;;
9388;SDS011;4734;52.778;6.798;2023-01-29T13:49:17;18.73;;;16.77;;
9388;SDS011;4734;52.778;6.798;2023-01-29T13:52:22;20.43;;;17.53;;
9388;SDS011;4734;52.778;6.798;2023-01-29T13:55:19;20.20;;;18.10;;
9388;SDS011;4734;52.778;6.798;2023-01-29T13:58:06;22.13;;;18.13;;
9388;SDS011;4734;52.778;6.798;2023-01-29T14:00:59;21.83;;;16.77;;
9388;SDS011;4734;52.778;6.798;2023-01-29T14:03:45;22.27;;;19.00;;
9388;SDS011;4734;52.778;6.798;2023-01-29T14:12:42;21.67;;;17.50;;
9388;SDS011;4734;52.778;6.798;2023-01-29T14:15:29;23.10;;;20.60;;
9388;SDS011;4734;52.778;6.798;2023-01-29T14:18:18;20.53;;;18.33;;
9388;SDS011;4734;52.778;6.798;2023-01-29T14:21:04;22.63;;;20.23;;
9388;SDS011;4734;52.778;6.798;2023-01-29T14:23:50;22.67;;;19.67;;
9388;SDS011;4734;52.778;6.798;2023-01-29T14:26:40;19.37;;;16.47;;
9388;SDS011;4734;52.778;6.798;2023-01-29T14:29:28;22.27;;;19.77;;
9388;SDS011;4734;52.778;6.798;2023-01-29T14:32:17;22.83;;;19.63;;
9388;SDS011;4734;52.778;6.798;2023-01-29T14:35:09;22.53;;;20.13;;
9388;SDS011;4734;52.778;6.798;2023-01-29T14:38:03;23.27;;;20.30;;
9388;SDS011;4734;52.778;6.798;2023-01-29T14:40:50;21.30;;;19.10;;
9388;SDS011;4734;52.778;6.798;2023-01-29T14:43:46;23.73;;;21.37;;
9388;SDS011;4734;52.778;6.798;2023-01-29T14:46:43;21.93;;;19.50;;
9388;SDS011;4734;52.778;6.798;2023-01-29T14:49:48;26.20;;;21.70;;
9388;SDS011;4734;52.778;6.798;2023-01-29T14:52:36;22.40;;;19.20;;
9388;SDS011;4734;52.778;6.798;2023-01-29T14:55:24;22.50;;;19.77;;
9388;SDS011;4734;52.778;6.798;2023-01-29T14:58:12;25.40;;;22.40;;
9388;SDS011;4734;52.778;6.798;2023-01-29T15:00:58;25.40;;;22.70;;
9388;SDS011;4734;52.778;6.798;2023-01-29T15:03:46;25.93;;;22.03;;
9388;SDS011;4734;52.778;6.798;2023-01-29T15:06:36;24.50;;;21.40;;
9388;SDS011;4734;52.778;6.798;2023-01-29T15:09:30;25.60;;;22.80;;
9388;SDS011;4734;52.778;6.798;2023-01-29T15:12:20;27.23;;;24.33;;
9388;SDS011;4734;52.778;6.798;2023-01-29T15:15:12;28.33;;;24.17;;
9388;SDS011;4734;52.778;6.798;2023-01-29T15:18:00;26.17;;;21.00;;
9388;SDS011;4734;52.778;6.798;2023-01-29T15:20:47;28.90;;;25.13;;
9388;SDS011;4734;52.778;6.798;2023-01-29T15:23:33;29.10;;;26.00;;
9388;SDS011;4734;52.778;6.798;2023-01-29T15:26:20;27.07;;;22.37;;
9388;SDS011;4734;52.778;6.798;2023-01-29T15:29:18;31.17;;;26.57;;
9388;SDS011;4734;52.778;6.798;2023-01-29T15:32:04;31.83;;;24.27;;
9388;SDS011;4734;52.778;6.798;2023-01-29T15:34:51;27.00;;;24.10;;
9388;SDS011;4734;52.778;6.798;2023-01-29T15:37:38;29.30;;;26.10;;
9388;SDS011;4734;52.778;6.798;2023-01-29T15:40:24;30.10;;;26.90;;
9388;SDS011;4734;52.778;6.798;2023-01-29T15:43:19;31.13;;;27.83;;
9388;SDS011;4734;52.778;6.798;2023-01-29T15:46:06;30.63;;;25.17;;
9388;SDS011;4734;52.778;6.798;2023-01-29T15:48:55;30.17;;;25.83;;
9388;SDS011;4734;52.778;6.798;2023-01-29T15:51:41;29.57;;;23.43;;
9388;SDS011;4734;52.778;6.798;2023-01-29T15:54:29;30.80;;;24.10;;
9388;SDS011;4734;52.778;6.798;2023-01-29T15:57:19;28.47;;;25.57;;
9388;SDS011;4734;52.778;6.798;2023-01-29T16:00:17;27.30;;;23.10;;
9388;SDS011;4734;52.778;6.798;2023-01-29T16:03:12;30.27;;;26.73;;
9388;SDS011;4734;52.778;6.798;2023-01-29T16:05:58;31.50;;;27.03;;
9388;SDS011;4734;52.778;6.798;2023-01-29T16:08:45;30.37;;;26.20;;
9388;SDS011;4734;52.778;6.798;2023-01-29T16:11:33;33.10;;;25.07;;
9388;SDS011;4734;52.778;6.798;2023-01-29T16:14:20;30.63;;;25.70;;
9388;SDS011;4734;52.778;6.798;2023-01-29T16:17:23;32.10;;;27.47;;
9388;SDS011;4734;52.778;6.798;2023-01-29T16:20:19;32.43;;;26.20;;
9388;SDS011;4734;52.778;6.798;2023-01-29T16:23:05;31.27;;;22.53;;
9388;SDS011;4734;52.778;6.798;2023-01-29T16:25:51;29.47;;;25.17;;
9388;SDS011;4734;52.778;6.798;2023-01-29T16:28:38;31.63;;;26.53;;
9388;SDS011;4734;52.778;6.798;2023-01-29T16:31:25;31.13;;;27.03;;
9388;SDS011;4734;52.778;6.798;2023-01-29T16:34:16;29.33;;;23.87;;
9388;SDS011;4734;52.778;6.798;2023-01-29T16:37:04;29.67;;;22.77;;
9388;SDS011;4734;52.778;6.798;2023-01-29T16:39:50;29.83;;;24.70;;
9388;SDS011;4734;52.778;6.798;2023-01-29T16:42:36;27.07;;;23.10;;
9388;SDS011;4734;52.778;6.798;2023-01-29T16:45:24;28.67;;;25.63;;
9388;SDS011;4734;52.778;6.798;2023-01-29T16:48:21;31.60;;;23.77;;
9388;SDS011;4734;52.778;6.798;2023-01-29T16:51:13;29.70;;;23.87;;
9388;SDS011;4734;52.778;6.798;2023-01-29T16:54:00;32.83;;;27.60;;
9388;SDS011;4734;52.778;6.798;2023-01-29T16:56:46;28.90;;;25.77;;
9388;SDS011;4734;52.778;6.798;2023-01-29T16:59:33;29.67;;;23.97;;
9388;SDS011;4734;52.778;6.798;2023-01-29T17:02:22;30.47;;;24.67;;
9388;SDS011;4734;52.778;6.798;2023-01-29T17:05:08;30.67;;;24.20;;
9388;SDS011;4734;52.778;6.798;2023-01-29T17:07:57;29.87;;;25.10;;
9388;SDS011;4734;52.778;6.798;2023-01-29T17:10:45;28.93;;;24.33;;
9388;SDS011;4734;52.778;6.798;2023-01-29T17:13:33;28.83;;;24.13;;
9388;SDS011;4734;52.778;6.798;2023-01-29T17:16:21;28.03;;;24.00;;
9388;SDS011;4734;52.778;6.798;2023-01-29T17:19:12;30.60;;;27.10;;